Corona Splendor — 7JRD — position and weather

sailwx.info

Track history (hours):
 
Tides and Currents Weather Stations Pressure Air Temp Water Temp Dewpoint Dewpoint Depression Visibility Wind Speed Wind Dir Waves Ship Positions

Corona Splendor

Last reported at 2017-Oct-21 16:12 UTC. Time now 2017-Nov-22 09:25 UTC.
Position S 27°30' E 153°52'.
Warning: this ship's position is 31 days out of date.

Length 229 m; draft 12.8 m.

Type: Cargo ship. MMSI: 432969000.

Date/timePositionNaut miles runAvg speedWind from/ knotsBaromVisibWave heightAir tempDewpointWater temp
2017-Oct-21 16:12S 27°30' E 153°52'411.5
2017-Oct-21 15:50S 27°35' E 153°51'411.3
2017-Oct-21 15:30S 27°38' E 153°51'510.9
2017-Oct-21 15:00S 27°44' E 153°51'1110.8
2017-Oct-21 14:00S 27°55' E 153°51'510.7
2017-Oct-21 13:30S 27°60' E 153°51'510.7
2017-Oct-21 13:00S 28°05' E 153°51'510.7
2017-Oct-21 12:30S 28°11' E 153°51'610.7
2017-Oct-21 11:59S 28°16' E 153°51'510.7
2017-Oct-21 11:30S 28°21' E 153°51'610.8
2017-Oct-21 10:58S 28°27' E 153°51'611.3
2017-Oct-21 10:26S 28°33' E 153°51'24311.9
2017-Oct-20 13:58S 32°30' E 152°45'511.6
2017-Oct-20 13:30S 32°33' E 152°40'510.9
2017-Oct-20 13:00S 32°37' E 152°35'510.7
2017-Oct-20 12:30S 32°40' E 152°30'510.7
2017-Oct-20 12:00S 32°43' E 152°25'510.7
2017-Oct-20 11:30S 32°47' E 152°20'611.3
2017-Oct-20 11:00S 32°50' E 152°15'611.8
2017-Oct-20 10:30S 32°53' E 152°09'612.1
2017-Oct-20 10:00S 32°54' E 152°02'611.7
2017-Oct-20 09:30S 32°55' E 151°55'4 8.7
2017-Oct-20 09:00S 32°55' E 151°50'3 5.3
2017-Oct-20 08:30S 32°55' E 151°47'2 3.3
2017-Oct-20 08:00S 32°53' E 151°46'0 0.3
2017-Oct-20 07:26S 32°53' E 151°46'0 0.0
2017-Oct-20 06:59S 32°53' E 151°46'0 0.0
2017-Oct-20 06:26S 32°53' E 151°46'0 0.0
2017-Oct-20 05:38S 32°53' E 151°46'0 0.0
2017-Oct-20 05:20S 32°53' E 151°46'0 0.0
2017-Oct-20 04:56S 32°53' E 151°46'0 0.0
2017-Oct-20 04:26S 32°53' E 151°46'0 0.0
2017-Oct-20 03:08S 32°53' E 151°46'0 0.0
2017-Oct-20 02:50S 32°53' E 151°46'0 0.0
2017-Oct-20 02:26S 32°53' E 151°46'0 0.0
2017-Oct-20 01:50S 32°53' E 151°46'0 0.0
2017-Oct-20 01:29S 32°53' E 151°46'0 0.0
2017-Oct-20 00:44S 32°53' E 151°46'0 0.0
2017-Oct-20 00:29S 32°53' E 151°46'0 0.0
2017-Oct-19 23:56S 32°53' E 151°46'0 0.0
2017-Oct-19 23:29S 32°53' E 151°46'0 0.0
2017-Oct-19 22:59S 32°53' E 151°46'0 0.0
2017-Oct-19 22:29S 32°53' E 151°46'0 0.0
2017-Oct-19 21:59S 32°53' E 151°46'0 0.0
2017-Oct-19 21:29S 32°53' E 151°46'0 0.0
2017-Oct-19 20:59S 32°53' E 151°46'0 0.0
2017-Oct-19 20:29S 32°53' E 151°46'0 0.0
2017-Oct-19 19:59S 32°53' E 151°46'0 0.0
2017-Oct-19 19:29S 32°53' E 151°46'0 0.0
2017-Oct-19 18:59S 32°53' E 151°46'0 0.0
2017-Oct-19 18:29S 32°53' E 151°46'0 0.0
2017-Oct-19 17:56S 32°53' E 151°46'0 0.0
2017-Oct-19 17:26S 32°53' E 151°46'0 0.0
2017-Oct-19 16:59S 32°53' E 151°46'0 0.0
2017-Oct-19 16:29S 32°53' E 151°46'0 0.0
2017-Oct-19 15:59S 32°53' E 151°46'0 0.0
2017-Oct-19 15:29S 32°53' E 151°46'1 1.1
2017-Oct-19 15:00S 32°54' E 151°46'2 3.8
2017-Oct-19 14:30S 32°55' E 151°48'4 7.7
2017-Oct-19 14:00S 32°58' E 151°51'4 7.6
2017-Oct-19 13:30S 32°60' E 151°55'3 5.9
2017-Oct-19 13:00S 32°58' E 151°58'4 8.1
2017-Oct-19 12:31S 32°56' E 152°02'714.8
2017-Oct-19 12:01S 32°52' E 152°09'714.5
2017-Oct-19 11:31S 32°50' E 152°18'612.7
2017-Oct-19 11:00S 32°51' E 152°25'612.3
2017-Oct-19 10:30S 32°47' E 152°31'816.3
2017-Oct-19 10:00S 32°44' E 152°40'816.5
2017-Oct-19 09:30S 32°41' E 152°49'816.3
2017-Oct-19 09:00S 32°38' E 152°58'816.4
2017-Oct-19 08:30S 32°35' E 153°07'24315.6
2017-Oct-18 16:53S 28°34' E 153°51'716.9
2017-Oct-18 16:30S 28°28' E 153°51'816.6
2017-Oct-18 16:00S 28°20' E 153°51'816.3
2017-Oct-18 15:30S 28°12' E 153°50'815.9
2017-Oct-18 15:00S 28°04' E 153°50'1615.6
2017-Oct-18 14:00S 27°48' E 153°49'815.6
2017-Oct-18 13:30S 27°40' E 153°50'915.5
2017-Oct-18 12:56S 27°31' E 153°50'815.1
2017-Oct-18 12:27S 27°24' E 153°50'1215.0
2017-Oct-18 11:38S 27°12' E 153°50'315.1
2017-Oct-18 11:25S 27°09' E 153°50'615.2
2017-Oct-18 11:00S 27°02' E 153°51'  
Track history (hours):
 
Tides and Currents Weather Stations Pressure Air Temp Water Temp Dewpoint Dewpoint Depression Visibility Wind Speed Wind Dir Waves Ship Positions

Corona Splendor

Last reported at 2017-Oct-21 16:12 UTC. Time now 2017-Nov-22 09:25 UTC.
Position S 27°30' E 153°52'.
Warning: this ship's position is 31 days out of date.

Length 229 m; draft 12.8 m.

Type: Cargo ship. MMSI: 432969000.

Date/timePositionNaut miles runAvg speedWind from/ knotsBaromVisibWave heightAir tempDewpointWater temp
2017-Oct-21 16:12S 27°30' E 153°52'411.5
2017-Oct-21 15:50S 27°35' E 153°51'411.3
2017-Oct-21 15:30S 27°38' E 153°51'510.9
2017-Oct-21 15:00S 27°44' E 153°51'1110.8
2017-Oct-21 14:00S 27°55' E 153°51'510.7
2017-Oct-21 13:30S 27°60' E 153°51'510.7
2017-Oct-21 13:00S 28°05' E 153°51'510.7
2017-Oct-21 12:30S 28°11' E 153°51'610.7
2017-Oct-21 11:59S 28°16' E 153°51'510.7
2017-Oct-21 11:30S 28°21' E 153°51'610.8
2017-Oct-21 10:58S 28°27' E 153°51'611.3
2017-Oct-21 10:26S 28°33' E 153°51'24311.9
2017-Oct-20 13:58S 32°30' E 152°45'511.6
2017-Oct-20 13:30S 32°33' E 152°40'510.9
2017-Oct-20 13:00S 32°37' E 152°35'510.7
2017-Oct-20 12:30S 32°40' E 152°30'510.7
2017-Oct-20 12:00S 32°43' E 152°25'510.7
2017-Oct-20 11:30S 32°47' E 152°20'611.3
2017-Oct-20 11:00S 32°50' E 152°15'611.8
2017-Oct-20 10:30S 32°53' E 152°09'612.1
2017-Oct-20 10:00S 32°54' E 152°02'611.7
2017-Oct-20 09:30S 32°55' E 151°55'4 8.7
2017-Oct-20 09:00S 32°55' E 151°50'3 5.3
2017-Oct-20 08:30S 32°55' E 151°47'2 3.3
2017-Oct-20 08:00S 32°53' E 151°46'0 0.3
2017-Oct-20 07:26S 32°53' E 151°46'0 0.0
2017-Oct-20 06:59S 32°53' E 151°46'0 0.0
2017-Oct-20 06:26S 32°53' E 151°46'0 0.0
2017-Oct-20 05:38S 32°53' E 151°46'0 0.0
2017-Oct-20 05:20S 32°53' E 151°46'0 0.0
2017-Oct-20 04:56S 32°53' E 151°46'0 0.0
2017-Oct-20 04:26S 32°53' E 151°46'0 0.0
2017-Oct-20 03:08S 32°53' E 151°46'0 0.0
2017-Oct-20 02:50S 32°53' E 151°46'0 0.0
2017-Oct-20 02:26S 32°53' E 151°46'0 0.0
2017-Oct-20 01:50S 32°53' E 151°46'0 0.0
2017-Oct-20 01:29S 32°53' E 151°46'0 0.0
2017-Oct-20 00:44S 32°53' E 151°46'0 0.0
2017-Oct-20 00:29S 32°53' E 151°46'0 0.0
2017-Oct-19 23:56S 32°53' E 151°46'0 0.0
2017-Oct-19 23:29S 32°53' E 151°46'0 0.0
2017-Oct-19 22:59S 32°53' E 151°46'0 0.0
2017-Oct-19 22:29S 32°53' E 151°46'0 0.0
2017-Oct-19 21:59S 32°53' E 151°46'0 0.0
2017-Oct-19 21:29S 32°53' E 151°46'0 0.0
2017-Oct-19 20:59S 32°53' E 151°46'0 0.0
2017-Oct-19 20:29S 32°53' E 151°46'0 0.0
2017-Oct-19 19:59S 32°53' E 151°46'0 0.0
2017-Oct-19 19:29S 32°53' E 151°46'0 0.0
2017-Oct-19 18:59S 32°53' E 151°46'0 0.0
2017-Oct-19 18:29S 32°53' E 151°46'0 0.0
2017-Oct-19 17:56S 32°53' E 151°46'0 0.0
2017-Oct-19 17:26S 32°53' E 151°46'0 0.0
2017-Oct-19 16:59S 32°53' E 151°46'0 0.0
2017-Oct-19 16:29S 32°53' E 151°46'0 0.0
2017-Oct-19 15:59S 32°53' E 151°46'0 0.0
2017-Oct-19 15:29S 32°53' E 151°46'1 1.1
2017-Oct-19 15:00S 32°54' E 151°46'2 3.8
2017-Oct-19 14:30S 32°55' E 151°48'4 7.7
2017-Oct-19 14:00S 32°58' E 151°51'4 7.6
2017-Oct-19 13:30S 32°60' E 151°55'3 5.9
2017-Oct-19 13:00S 32°58' E 151°58'4 8.1
2017-Oct-19 12:31S 32°56' E 152°02'714.8
2017-Oct-19 12:01S 32°52' E 152°09'714.5
2017-Oct-19 11:31S 32°50' E 152°18'612.7
2017-Oct-19 11:00S 32°51' E 152°25'612.3
2017-Oct-19 10:30S 32°47' E 152°31'816.3
2017-Oct-19 10:00S 32°44' E 152°40'816.5
2017-Oct-19 09:30S 32°41' E 152°49'816.3
2017-Oct-19 09:00S 32°38' E 152°58'816.4
2017-Oct-19 08:30S 32°35' E 153°07'24315.6
2017-Oct-18 16:53S 28°34' E 153°51'716.9
2017-Oct-18 16:30S 28°28' E 153°51'816.6
2017-Oct-18 16:00S 28°20' E 153°51'816.3
2017-Oct-18 15:30S 28°12' E 153°50'815.9
2017-Oct-18 15:00S 28°04' E 153°50'1615.6
2017-Oct-18 14:00S 27°48' E 153°49'815.6
2017-Oct-18 13:30S 27°40' E 153°50'915.5
2017-Oct-18 12:56S 27°31' E 153°50'815.1
2017-Oct-18 12:27S 27°24' E 153°50'1215.0
2017-Oct-18 11:38S 27°12' E 153°50'315.1
2017-Oct-18 11:25S 27°09' E 153°50'615.2
2017-Oct-18 11:00S 27°02' E 153°51'  

Dump ship's entire track history